Mount Lebanon, Pennsylvania
Current Conditions -  °F | °C
As of 9:53 AM on Thursday 23 Oct 2014 (Local Time) from KAGC Reporting Station
Few Clouds Few Clouds  
Wind Chill: 50°   Ceiling: Unl
Heat Index: 50°   Visibility: 10mi
Dew Point: 39°   Wind: 14mph
Humidity: 66%   Direction: 320°NW
Pressure: 30.11"   Gusts: 18mph
Location:  40.38°N, 80.04°W
Report Text: KAGC 231353Z 32012G16KT 10SM FEW017 10/04 A3011 RMK AO2 SLP205 T01000039
Loading
Personal Weather Stations






























Interactive Weather Map
Tropical Storm Tracking
New forecast layout! Learn more

10-Day Weather Forecast

Advertisements
Track Severe Weather on mobile